Time;durP1;ratioP1;P1;durP2;ratioP2;P2;SDS_P1;SDS_P2;PMS_P1;PMS_P2;Temp;Humidity;BMP_temperature;BMP_pressure;BME280_temperature;BME280_humidity;BME280_pressure;Samples;Min_cycle;Max_cycle;Signal;HPM_P1;HPM_P2
2022/11/09 00:00:52;;;;;;;48.30;32.30;;;;;;;11.15;92.48;98261.75;10376965;28;20186;-57
2022/11/09 00:05:55;;;;;;;49.20;31.73;;;;;;;11.09;92.13;98261.75;10376320;28;20491;-57
2022/11/09 00:11:00;;;;;;;48.50;31.70;;;;;;;11.07;91.34;98258.28;10376834;28;20072;-57
2022/11/09 00:16:00;;;;;;;49.70;32.03;;;;;;;11.07;91.58;98250.50;10376831;28;20064;-57
2022/11/09 00:21:05;;;;;;;45.38;29.67;;;;;;;11.07;91.36;98261.75;10376527;28;20508;-57
2022/11/09 00:26:08;;;;;;;48.50;31.73;;;;;;;11.04;91.81;98249.59;10376056;28;20468;-54
2022/11/09 00:31:14;;;;;;;51.25;33.30;;;;;;;11.05;91.26;98253.06;10374576;28;20080;-57
2022/11/09 00:36:13;;;;;;;58.10;36.88;;;;;;;11.08;91.54;98249.63;10375665;28;20068;-57
2022/11/09 00:41:12;;;;;;;55.53;37.40;;;;;;;11.07;91.32;98242.69;10375499;28;20916;-57
2022/11/09 00:46:12;;;;;;;60.40;37.75;;;;;;;11.06;92.17;98235.75;10375810;28;20491;-57
2022/11/09 00:51:11;;;;;;;;;;;;;;;11.01;91.89;98238.31;10375093;28;20539;-57
2022/11/09 00:56:11;;;;;;;55.92;35.97;;;;;;;10.97;91.93;98234.00;10374829;28;19944;-57
2022/11/09 01:01:16;;;;;;;54.10;35.63;;;;;;;10.80;92.29;98224.34;10375374;28;20068;-57
2022/11/09 01:06:17;;;;;;;49.22;31.42;;;;;;;10.77;92.83;98239.03;10374693;28;20496;-55
2022/11/09 01:11:19;;;;;;;46.55;31.60;;;;;;;10.67;92.47;98229.47;10374213;28;20080;-55
2022/11/09 01:16:20;;;;;;;48.53;29.98;;;;;;;10.52;93.00;98238.88;10374010;28;20076;-55
2022/11/09 01:21:19;;;;;;;48.00;30.25;;;;;;;10.52;92.75;98231.09;10374188;28;20060;-55
2022/11/09 01:26:18;;;;;;;52.85;34.33;;;;;;;10.53;92.91;98224.19;10373582;28;20031;-55
2022/11/09 01:31:18;;;;;;;;;;;;;;;10.58;92.79;98238.06;10374523;28;20065;-55
2022/11/09 01:36:20;;;;;;;56.42;34.45;;;;;;;10.58;92.45;98233.72;10373211;28;19967;-56
2022/11/09 01:41:22;;;;;;;54.28;35.17;;;;;;;10.60;92.46;98228.56;10372164;28;20069;-57
2022/11/09 01:46:49;;;;;;;61.83;36.65;;;;;;;10.59;92.61;98235.47;10373021;28;20064;-57
2022/11/09 01:52:05;;;;;;;58.90;37.22;;;;;;;10.54;92.85;98221.59;10372197;28;20089;-57
2022/11/09 01:57:10;;;;;;;58.78;35.90;;;;;;;10.60;93.24;98223.38;10372693;28;20068;-57
2022/11/09 02:02:10;;;;;;;57.28;36.08;;;;;;;10.64;93.31;98232.91;10371829;28;20080;-57
2022/11/09 02:07:09;;;;;;;60.13;37.00;;;;;;;10.61;93.72;98228.56;10372757;28;20072;-57
2022/11/09 02:12:08;;;;;;;57.72;36.25;;;;;;;10.64;93.48;98232.91;10372251;28;20064;-57
2022/11/09 02:17:07;;;;;;;60.38;36.92;;;;;;;10.55;93.93;98232.84;10371841;28;20072;-57
2022/11/09 02:22:07;;;;;;;52.35;35.17;;;;;;;10.47;94.55;98240.59;10372277;28;20087;-57
2022/11/09 02:27:06;;;;;;;;;;;;;;;10.52;95.38;98240.59;10372490;28;20509;-58
2022/11/09 02:32:17;;;;;;;54.78;36.03;;;;;;;10.59;95.21;98243.25;10330447;28;20411;-58
2022/11/09 02:37:49;;;;;;;62.55;37.40;;;;;;;10.58;94.71;98244.09;10330716;28;20068;-55
2022/11/09 02:42:47;;;;;;;58.10;37.60;;;;;;;10.57;95.07;98246.72;10329701;28;20087;-56
2022/11/09 02:47:46;;;;;;;58.50;39.55;;;;;;;10.55;95.38;98249.28;10329996;28;20040;-56
2022/11/09 02:52:45;;;;;;;57.13;38.50;;;;;;;10.51;94.88;98247.50;10329750;28;20444;-56
2022/11/09 02:57:44;;;;;;;57.28;36.28;;;;;;;10.53;95.15;98256.19;10330686;28;20145;-56
2022/11/09 03:02:43;;;;;;;55.60;36.25;;;;;;;10.57;94.66;98238.91;10329624;28;20064;-56
2022/11/09 03:07:42;;;;;;;58.38;37.03;;;;;;;10.60;94.81;98247.56;10330262;28;20029;-57
2022/11/09 03:12:41;;;;;;;54.47;35.78;;;;;;;10.63;95.20;98244.13;10330214;28;20416;-57
2022/11/09 03:17:40;;;;;;;59.08;36.63;;;;;;;10.63;94.29;98257.09;10329368;28;20041;-55
2022/11/09 03:22:39;;;;;;;64.60;38.90;;;;;;;10.62;94.36;98256.25;10330058;28;20122;-55
2022/11/09 03:27:38;;;;;;;62.20;39.35;;;;;;;10.57;93.99;98262.28;10333894;28;20033;-55
2022/11/09 03:32:37;;;;;;;70.25;43.17;;;;;;;10.51;94.32;98246.66;10370119;28;20041;-55
2022/11/09 03:37:36;;;;;;;70.72;42.45;;;;;;;10.41;94.16;98250.91;10370319;28;20522;-56
2022/11/09 03:42:35;;;;;;;68.40;39.90;;;;;;;10.22;94.75;98243.84;10370132;28;20028;-56
2022/11/09 03:47:34;;;;;;;69.30;40.53;;;;;;;10.06;94.94;98254.06;10369438;28;20567;-56
2022/11/09 03:52:33;;;;;;;71.50;39.17;;;;;;;9.81;95.36;98252.09;10369536;28;20116;-56
2022/11/09 03:57:32;;;;;;;75.03;41.83;;;;;;;9.60;96.15;98258.78;10370035;28;20067;-56
2022/11/09 04:02:31;;;;;;;81.47;47.13;;;;;;;9.55;96.44;98265.66;10369769;28;20135;-56
2022/11/09 04:07:30;;;;;;;84.63;48.50;;;;;;;9.47;96.05;98260.38;10374582;28;20048;-57
2022/11/09 04:12:29;;;;;;;;;;;;;;;9.38;96.53;98264.59;10377824;28;20069;-57
2022/11/09 04:17:29;;;;;;;91.07;48.47;;;;;;;9.30;96.29;98260.19;10377132;28;20420;-57
2022/11/09 04:22:28;;;;;;;90.43;48.53;;;;;;;9.21;96.49;98267.81;10377275;28;20096;-57
2022/11/09 04:27:28;;;;;;;95.95;51.10;;;;;;;9.08;96.72;98264.19;10376938;28;20056;-57
2022/11/09 04:32:27;;;;;;;90.70;50.80;;;;;;;9.03;96.88;98270.16;10376197;28;20081;-57
2022/11/09 04:37:26;;;;;;;96.10;49.65;;;;;;;8.89;97.56;98270.84;10376018;28;20487;-57
2022/11/09 04:42:25;;;;;;;97.20;49.30;;;;;;;8.78;98.04;98274.97;10375972;28;20041;-57
2022/11/09 04:47:24;;;;;;;96.95;49.00;;;;;;;8.69;98.19;98274.84;10375251;28;20029;-57
2022/11/09 04:52:23;;;;;;;103.15;53.20;;;;;;;8.68;98.20;98280.88;10375467;28;20061;-57
2022/11/09 04:57:22;;;;;;;130.98;67.22;;;;;;;8.58;98.11;98274.69;10375507;28;20041;-57
2022/11/09 05:02:21;;;;;;;126.15;66.13;;;;;;;8.42;98.75;98286.53;10375471;28;20079;-56
2022/11/09 05:07:20;;;;;;;108.00;55.28;;;;;;;8.32;99.29;98295.00;10374350;28;20067;-57
2022/11/09 05:12:19;;;;;;;101.22;51.05;;;;;;;8.26;99.45;98300.03;10374998;28;20035;-56
2022/11/09 05:17:18;;;;;;;111.45;55.13;;;;;;;8.30;99.24;98294.94;10374194;28;20037;-57
2022/11/09 05:27:34;;;;;;;125.93;61.33;;;;;;;8.37;99.38;98306.28;10374541;28;20056;-57
2022/11/09 05:32:37;;;;;;;116.97;59.63;;;;;;;8.44;99.14;98299.50;10373385;28;20041;-57
2022/11/09 05:37:37;;;;;;;116.45;57.90;;;;;;;8.51;99.42;98307.34;10373706;28;20576;-56
2022/11/09 05:42:39;;;;;;;119.75;56.30;;;;;;;8.57;99.18;98305.72;10372279;28;20060;-57
2022/11/09 05:47:40;;;;;;;105.65;54.08;;;;;;;8.68;99.50;98314.50;10361806;28;20082;-57
2022/11/09 05:52:39;;;;;;;117.45;61.90;;;;;;;8.83;99.67;98316.47;10291369;28;20081;-57
2022/11/09 05:57:38;;;;;;;116.25;60.70;;;;;;;8.97;99.85;98327.00;10268544;28;20076;-57
2022/11/09 06:02:37;;;;;;;131.60;73.68;;;;;;;9.01;99.86;98308.09;10266867;28;20038;-57
2022/11/09 06:07:36;;;;;;;121.28;68.78;;;;;;;9.25;99.27;98338.63;10272611;28;20429;-57
2022/11/09 06:12:35;;;;;;;120.35;68.70;;;;;;;9.44;99.38;98344.97;10283669;28;20122;-55
2022/11/09 06:17:34;;;;;;;113.97;65.40;;;;;;;9.63;99.50;98339.19;10249928;28;20561;-55
2022/11/09 06:22:33;;;;;;;123.03;70.82;;;;;;;9.70;99.26;98347.88;10261931;28;20476;-55
2022/11/09 06:27:31;;;;;;;115.20;67.68;;;;;;;9.79;98.28;98347.97;10285673;28;20052;-55
2022/11/09 06:32:30;;;;;;;112.85;65.68;;;;;;;9.88;98.41;98342.91;10250476;28;20045;-55
2022/11/09 06:37:29;;;;;;;102.60;61.65;;;;;;;10.07;98.68;98343.97;10279356;28;20105;-56
2022/11/09 06:42:28;;;;;;;96.85;54.05;;;;;;;10.14;97.34;98340.59;10291215;28;20116;-56
2022/11/09 06:47:28;;;;;;;92.90;55.25;;;;;;;10.18;97.04;98329.38;10286181;28;20045;-56
2022/11/09 06:52:26;;;;;;;;;;;;;;;10.14;97.04;98332.81;10281836;28;20085;-56
2022/11/09 06:57:28;;;;;;;102.13;61.72;;;;;;;10.22;96.66;98342.41;10291031;28;19913;-56
2022/11/09 07:02:27;;;;;;;95.38;57.40;;;;;;;10.23;96.72;98336.34;10289278;28;20083;-56
2022/11/09 07:07:26;;;;;;;81.65;51.95;;;;;;;10.19;96.44;98338.03;10291243;28;20034;-56
2022/11/09 07:12:25;;;;;;;75.07;46.28;;;;;;;10.16;96.81;98333.69;10289396;28;20657;-56
2022/11/09 07:17:24;;;;;;;74.00;45.83;;;;;;;10.18;97.18;98337.16;10286958;28;20029;-56
2022/11/09 07:22:24;;;;;;;75.70;47.30;;;;;;;10.20;97.46;98330.28;10281154;28;20068;-56
2022/11/09 07:27:22;;;;;;;;;;;;;;;10.23;97.41;98329.44;10260584;28;20636;-57
2022/11/09 07:32:21;;;;;;;73.45;44.92;;;;;;;10.26;97.35;98328.59;10258532;28;19967;-57
2022/11/09 07:37:20;;;;;;;66.97;41.75;;;;;;;10.31;97.64;98326.94;10290451;28;20030;-58
2022/11/09 07:42:19;;;;;;;62.85;41.72;;;;;;;10.42;98.05;98330.47;10276895;28;20034;-57
2022/11/09 07:47:19;;;;;;;65.15;39.97;;;;;;;10.45;97.65;98322.72;10297576;28;20041;-57
2022/11/09 07:52:18;;;;;;;67.10;39.40;;;;;;;10.56;97.57;98328.84;10297264;28;20096;-56
2022/11/09 07:57:17;;;;;;;52.30;35.78;;;;;;;10.63;96.99;98319.41;10297836;28;20018;-57
2022/11/09 08:02:16;;;;;;;56.97;38.47;;;;;;;10.79;97.16;98318.66;10297453;28;20042;-57
2022/11/09 08:07:15;;;;;;;55.40;37.80;;;;;;;10.99;96.20;98318.84;10296420;28;20030;-57
2022/11/09 08:12:14;;;;;;;56.10;36.70;;;;;;;11.03;95.58;98310.22;10297532;28;20113;-57
2022/11/09 08:17:13;;;;;;;55.30;35.20;;;;;;;11.17;95.61;98312.00;10296362;28;20029;-57
2022/11/09 08:22:11;;;;;;;53.55;35.33;;;;;;;11.38;94.81;98312.09;10265083;28;20445;-57
2022/11/09 08:27:10;;;;;;;51.35;35.17;;;;;;;11.61;93.79;98308.75;10269201;28;20014;-57
2022/11/09 08:32:09;;;;;;;51.45;35.20;;;;;;;11.81;92.83;98307.09;10255165;28;20034;-57
2022/11/09 08:37:08;;;;;;;50.20;34.90;;;;;;;11.97;91.34;98310.59;10279048;28;20026;-56
2022/11/09 08:42:07;;;;;;;46.58;33.28;;;;;;;12.24;91.19;98304.56;10274893;28;20042;-57
2022/11/09 08:47:06;;;;;;;50.40;34.13;;;;;;;12.45;88.67;98300.28;10287920;28;20684;-56
2022/11/09 08:52:05;;;;;;;47.28;33.00;;;;;;;12.64;88.65;98304.59;10293125;28;20248;-56
2022/11/09 08:57:04;;;;;;;45.45;32.47;;;;;;;12.82;87.71;98306.34;10274762;28;20069;-56
2022/11/09 09:02:04;;;;;;;48.42;30.67;;;;;;;13.01;86.63;98301.97;10275428;28;20033;-56
2022/11/09 09:07:03;;;;;;;44.53;30.30;;;;;;;13.21;85.77;98303.66;10269388;28;20061;-56
2022/11/09 09:12:02;;;;;;;45.00;30.25;;;;;;;13.47;85.15;98301.84;10265907;28;20085;-56
2022/11/09 09:17:01;;;;;;;43.28;29.67;;;;;;;13.70;83.86;98293.97;10292197;28;20065;-56
2022/11/09 09:22:00;;;;;;;42.50;29.58;;;;;;;13.74;81.28;98289.56;10285094;28;20645;-56
2022/11/09 09:27:00;;;;;;;43.70;30.25;;;;;;;14.05;79.81;98285.03;10284748;28;20066;-56
2022/11/09 09:31:59;;;;;;;43.15;28.90;;;;;;;14.31;77.97;98286.59;10255990;28;20069;-56
2022/11/09 09:36:58;;;;;;;43.72;29.40;;;;;;;14.49;77.78;98272.53;10254817;28;20042;-56
2022/11/09 09:42:01;;;;;;;37.38;27.52;;;;;;;14.71;75.73;98271.53;10254319;28;20036;-57
2022/11/09 09:47:06;;;;;;;34.03;26.38;;;;;;;14.86;74.05;98253.97;10282700;28;20077;-56
2022/11/09 09:52:11;;;;;;;35.85;26.80;;;;;;;14.96;73.24;98253.81;10293125;28;20092;-56
2022/11/09 09:57:19;;;;;;;35.03;24.90;;;;;;;14.97;70.54;98242.50;10265086;28;20521;-57
2022/11/09 10:02:24;;;;;;;37.88;25.65;;;;;;;15.25;70.31;98243.06;10287288;28;20061;-56
2022/11/09 10:07:37;;;;;;;34.13;24.20;;;;;;;15.47;68.42;98232.31;10293414;28;20081;-57
2022/11/09 10:13:02;;;;;;;36.15;23.40;;;;;;;15.66;67.19;98225.94;10290165;28;20073;-57
2022/11/09 10:18:14;;;;;;;34.00;24.00;;;;;;;15.82;64.16;98217.94;10253119;28;20069;-57
2022/11/09 10:23:35;;;;;;;31.90;23.90;;;;;;;15.93;62.44;98215.13;10253854;28;20066;-57
2022/11/09 10:28:40;;;;;;;36.40;23.35;;;;;;;16.07;61.58;98216.66;10277825;28;20466;-57
2022/11/09 10:33:39;;;;;;;29.83;21.88;;;;;;;16.11;58.90;98214.00;10278999;28;20065;-56
2022/11/09 10:38:40;;;;;;;;;;;;;;;16.22;57.14;98212.06;10271843;28;20026;-57
2022/11/09 10:43:39;;;;;;;32.00;23.35;;;;;;;16.39;57.48;98202.16;10258606;28;19960;-57
2022/11/09 10:48:39;;;;;;;;;;;;;;;16.63;57.54;98203.50;10291144;28;20460;-56
2022/11/09 10:53:37;;;;;;;28.10;19.73;;;;;;;16.83;55.90;98190.06;10291021;28;19944;-57
2022/11/09 10:58:38;;;;;;;;;;;;;;;16.83;54.64;98184.81;10291849;28;20276;-57
2022/11/09 11:03:38;;;;;;;29.52;22.00;;;;;;;16.97;54.10;98181.06;10291480;28;19947;-57
2022/11/09 11:08:43;;;;;;;26.05;18.70;;;;;;;17.19;52.58;98177.13;10284546;28;20073;-57
2022/11/09 11:13:43;;;;;;;24.20;18.67;;;;;;;17.25;50.70;98161.25;10249668;28;20061;-57
2022/11/09 11:18:45;;;;;;;24.17;18.42;;;;;;;17.33;50.16;98164.56;10250106;28;20070;-56
2022/11/09 11:23:44;;;;;;;24.98;19.60;;;;;;;17.27;50.79;98161.22;10288689;28;20057;-57
2022/11/09 11:28:56;;;;;;;25.10;19.63;;;;;;;17.51;50.85;98163.28;10290399;28;20072;-57
2022/11/09 11:33:57;;;;;;;24.30;17.83;;;;;;;17.53;49.45;98142.28;10290629;28;20348;-57
2022/11/09 11:39:04;;;;;;;24.10;20.33;;;;;;;17.43;49.57;98153.88;10290314;28;20484;-57
2022/11/09 11:44:40;;;;;;;24.30;19.95;;;;;;;17.58;49.97;98144.78;10250501;28;20058;-57
2022/11/09 11:50:10;;;;;;;24.42;17.73;;;;;;;17.68;50.74;98141.03;10249936;28;20078;-57
2022/11/09 11:55:24;;;;;;;25.02;19.02;;;;;;;17.69;49.57;98143.66;10249308;28;20077;-57
2022/11/09 12:00:23;;;;;;;22.65;18.77;;;;;;;17.65;49.01;98131.47;10249733;28;20557;-57
2022/11/09 12:05:57;;;;;;;27.13;19.70;;;;;;;17.72;48.84;98129.59;10249084;28;20058;-56
2022/11/09 12:11:14;;;;;;;25.13;18.52;;;;;;;17.77;48.47;98127.75;10249883;28;20066;-57
2022/11/09 12:16:39;;;;;;;25.25;18.48;;;;;;;17.73;48.58;98121.69;10249301;28;20548;-56
2022/11/09 12:21:50;;;;;;;22.88;18.83;;;;;;;17.59;48.57;98126.41;10265744;28;20077;-58
2022/11/09 12:27:19;;;;;;;25.20;18.23;;;;;;;17.65;48.03;98117.50;10292757;28;20078;-57
2022/11/09 12:32:23;;;;;;;24.05;19.10;;;;;;;17.48;48.46;98120.53;10295032;28;20442;-57
2022/11/09 12:37:36;;;;;;;20.85;16.85;;;;;;;17.62;48.12;98118.44;10298056;28;20057;-56
2022/11/09 12:42:52;;;;;;;23.42;18.80;;;;;;;17.83;48.13;98113.63;10299158;28;20069;-56
2022/11/09 12:47:53;;;;;;;25.17;18.55;;;;;;;17.97;47.32;98108.88;10296574;28;20117;-57
2022/11/09 12:52:52;;;;;;;23.70;18.60;;;;;;;17.72;47.19;98088.44;10297523;28;20084;-57
2022/11/09 12:57:52;;;;;;;20.50;17.95;;;;;;;17.84;47.26;98102.19;10297044;28;20073;-57
2022/11/09 13:02:57;;;;;;;24.13;18.55;;;;;;;17.75;47.35;98105.88;10297081;28;20069;-57
2022/11/09 13:08:00;;;;;;;23.83;19.05;;;;;;;17.67;47.29;98110.47;10296794;28;20073;-57
2022/11/09 13:13:21;;;;;;;22.30;17.52;;;;;;;17.76;47.40;98105.88;10296967;28;20077;-57
2022/11/09 13:18:29;;;;;;;21.13;17.83;;;;;;;17.87;47.07;98102.13;10296516;28;20073;-56
2022/11/09 13:23:36;;;;;;;22.83;17.83;;;;;;;17.83;46.71;98101.34;10295900;28;20072;-56
2022/11/09 13:28:41;;;;;;;25.52;17.33;;;;;;;18.01;46.90;98109.66;10295138;28;20061;-57
2022/11/09 13:33:41;;;;;;;27.10;19.92;;;;;;;18.06;47.23;98108.66;10295611;28;20073;-56
2022/11/09 13:38:40;;;;;;;26.23;19.27;;;;;;;17.81;49.65;98110.16;10295112;28;20085;-57
2022/11/09 13:43:40;;;;;;;23.38;18.58;;;;;;;17.63;51.19;98116.66;10296038;28;20162;-57
2022/11/09 13:48:46;;;;;;;25.73;19.13;;;;;;;17.29;52.25;98123.56;10294928;28;20081;-57
2022/11/09 13:54:13;;;;;;;26.27;18.60;;;;;;;17.14;53.99;98116.00;10295177;28;20069;-57
2022/11/09 13:59:12;;;;;;;26.83;20.30;;;;;;;17.01;54.24;98123.28;10294935;28;20065;-57
2022/11/09 14:04:25;;;;;;;28.42;19.63;;;;;;;16.89;54.92;98124.41;10294834;28;20025;-57
2022/11/09 14:09:24;;;;;;;27.70;20.38;;;;;;;16.84;55.27;98133.25;10294324;28;20087;-57
2022/11/09 14:15:01;;;;;;;26.42;19.65;;;;;;;16.84;55.49;98135.88;10294410;28;20073;-56
2022/11/09 14:20:23;;;;;;;25.90;19.88;;;;;;;16.72;55.78;98139.56;10290468;28;20060;-56
2022/11/09 14:25:23;;;;;;;30.35;21.00;;;;;;;16.64;56.24;98139.72;10253296;28;20062;-57
2022/11/09 14:30:26;;;;;;;27.30;20.38;;;;;;;16.54;56.49;98134.69;10252782;28;20069;-57
2022/11/09 14:35:32;;;;;;;27.77;19.67;;;;;;;16.37;56.95;98143.72;10253099;28;20077;-57
2022/11/09 14:40:31;;;;;;;33.63;26.55;;;;;;;16.19;57.30;98128.34;10252843;28;20062;-57
2022/11/09 14:45:30;;;;;;;33.25;23.70;;;;;;;16.15;57.63;98137.13;10252678;28;20069;-57
2022/11/09 14:50:30;;;;;;;;;;;;;;;16.01;57.99;98139.97;10290051;28;20078;-57
2022/11/09 14:55:32;;;;;;;47.53;40.90;;;;;;;15.97;58.05;98143.53;10292549;28;19945;-57
2022/11/09 15:00:33;;;;;;;38.47;28.05;;;;;;;15.89;58.31;98148.91;10292869;28;20069;-57
2022/11/09 15:05:38;;;;;;;43.63;30.33;;;;;;;15.78;59.14;98153.41;10292364;28;20486;-56
2022/11/09 15:10:37;;;;;;;38.67;27.88;;;;;;;15.57;60.36;98146.75;10292977;28;20077;-56
2022/11/09 15:15:37;;;;;;;50.03;36.03;;;;;;;15.33;61.00;98166.28;10292537;28;20072;-57
2022/11/09 15:20:36;;;;;;;46.80;37.30;;;;;;;15.07;61.98;98170.09;10284005;28;20070;-57
2022/11/09 15:25:51;;;;;;;;;;;;;;;14.89;62.46;98167.69;10252498;28;20022;-57
2022/11/09 15:30:52;;;;;;;42.85;31.75;;;;;;;14.73;63.44;98172.22;10251861;28;19961;-57
2022/11/09 15:35:58;;;;;;;191.45;122.95;;;;;;;14.60;63.66;98180.16;10251969;28;20074;-57
2022/11/09 15:40:57;;;;;;;92.68;68.47;;;;;;;14.52;64.25;98181.09;10252089;28;20509;-57
2022/11/09 15:45:57;;;;;;;;;;;;;;;14.37;64.78;98182.13;10252894;28;20470;-57
2022/11/09 15:50:56;;;;;;;53.90;45.05;;;;;;;14.23;65.62;98187.47;10251476;28;20417;-57
2022/11/09 15:55:55;;;;;;;54.47;43.83;;;;;;;14.09;66.49;98191.94;10251642;28;20073;-57
2022/11/09 16:00:54;;;;;;;84.10;60.20;;;;;;;13.95;66.84;98198.13;10253050;28;20097;-58
2022/11/09 16:05:53;;;;;;;59.42;46.47;;;;;;;13.83;67.71;98197.38;10258816;28;20022;-56
2022/11/09 16:10:52;;;;;;;48.70;36.20;;;;;;;13.71;67.88;98196.56;10259181;28;20034;-57
2022/11/09 16:15:51;;;;;;;48.13;34.10;;;;;;;13.66;68.84;98205.31;10258685;28;20036;-57
2022/11/09 16:20:50;;;;;;;40.05;29.13;;;;;;;13.56;69.11;98209.69;10255909;28;20038;-58
2022/11/09 16:25:49;;;;;;;37.85;26.27;;;;;;;13.50;70.08;98215.78;10271055;28;20041;-57
2022/11/09 16:30:48;;;;;;;36.40;25.98;;;;;;;13.46;70.05;98221.00;10255218;28;20505;-57
2022/11/09 16:35:47;;;;;;;36.60;25.40;;;;;;;13.38;70.51;98218.47;10257284;28;20034;-57
2022/11/09 16:40:46;;;;;;;40.80;29.75;;;;;;;13.28;70.81;98219.34;10257043;28;20065;-57
2022/11/09 16:45:48;;;;;;;60.80;43.30;;;;;;;13.15;71.57;98222.00;10257746;28;20088;-57
2022/11/09 16:50:47;;;;;;;68.10;49.33;;;;;;;13.03;71.88;98224.66;10257523;28;20089;-57
2022/11/09 16:55:46;;;;;;;65.70;48.08;;;;;;;12.89;72.40;98223.84;10256559;28;20069;-56
2022/11/09 17:00:47;;;;;;;58.50;46.10;;;;;;;12.68;72.95;98225.63;10254631;28;20018;-56
2022/11/09 17:05:46;;;;;;;64.53;46.97;;;;;;;12.46;73.66;98235.22;10253049;28;20069;-57
2022/11/09 17:10:46;;;;;;;51.53;40.55;;;;;;;12.27;74.34;98220.41;10250978;28;20026;-56
2022/11/09 17:15:47;;;;;;;58.63;41.88;;;;;;;12.10;75.05;98223.03;10250739;28;20537;-57
2022/11/09 17:20:49;;;;;;;72.45;50.85;;;;;;;11.97;75.39;98229.97;10250252;28;20050;-58
2022/11/09 17:25:58;;;;;;;75.38;51.90;;;;;;;11.81;77.05;98236.88;10292838;28;20081;-58
2022/11/09 17:30:57;;;;;;;;;;;;;;;11.74;76.97;98244.69;10293007;28;20069;-58
2022/11/09 17:35:58;;;;;;;66.00;45.55;;;;;;;11.61;77.67;98233.38;10288023;28;19909;-58
2022/11/09 17:41:04;;;;;;;67.85;46.85;;;;;;;11.49;78.17;98248.94;10251691;28;20073;-57
2022/11/09 17:46:05;;;;;;;69.03;47.45;;;;;;;11.41;78.41;98254.97;10251324;28;20592;-57
2022/11/09 17:51:05;;;;;;;71.18;48.35;;;;;;;11.35;78.82;98244.53;10251236;28;20081;-57
2022/11/09 17:56:07;;;;;;;70.22;50.63;;;;;;;11.28;78.83;98257.50;10250846;28;20065;-57
2022/11/09 18:01:08;;;;;;;73.22;50.42;;;;;;;11.16;79.61;98251.41;10251473;28;20080;-57
2022/11/09 18:06:16;;;;;;;69.32;48.53;;;;;;;11.07;80.21;98260.88;10256046;28;20096;-57
2022/11/09 18:11:16;;;;;;;67.40;47.38;;;;;;;10.97;79.79;98258.22;10251258;28;20077;-55
2022/11/09 18:16:17;;;;;;;88.43;58.60;;;;;;;10.86;81.02;98259.84;10251059;28;20062;-55
2022/11/09 18:21:18;;;;;;;85.90;56.70;;;;;;;10.76;80.85;98269.31;10249571;28;20072;-55
2022/11/09 18:26:17;;;;;;;96.25;63.50;;;;;;;10.63;82.36;98267.50;10250724;28;20073;-55
2022/11/09 18:31:16;;;;;;;100.28;66.88;;;;;;;10.56;82.36;98266.56;10250598;28;20085;-58
2022/11/09 18:36:17;;;;;;;;;;;;;;;10.46;83.54;98274.28;10250146;28;20464;-56
2022/11/09 18:41:19;;;;;;;96.60;66.63;;;;;;;10.37;83.76;98272.50;10250330;28;19964;-57
2022/11/09 18:46:19;;;;;;;115.95;80.63;;;;;;;10.23;84.41;98276.69;10249058;28;20486;-57
2022/11/09 18:51:19;;;;;;;119.93;79.15;;;;;;;10.16;84.67;98276.63;10248862;28;20460;-56
2022/11/09 18:56:23;;;;;;;117.45;80.75;;;;;;;10.07;84.88;98273.94;10250544;28;20070;-56
2022/11/09 19:01:24;;;;;;;130.50;87.38;;;;;;;9.95;86.00;98276.44;10249743;28;20536;-56
2022/11/09 19:06:23;;;;;;;110.97;74.63;;;;;;;9.88;85.94;98274.63;10248642;28;20426;-56
2022/11/09 19:11:22;;;;;;;72.75;52.15;;;;;;;9.71;86.81;98282.25;10249419;28;20070;-56
2022/11/09 19:16:23;;;;;;;63.17;40.50;;;;;;;9.48;89.41;98285.44;10248787;28;20116;-56
2022/11/09 19:21:44;;;;;;;68.28;47.30;;;;;;;9.42;89.25;98280.19;10247911;28;20513;-56
2022/11/09 19:26:43;;;;;;;83.13;53.00;;;;;;;9.37;89.54;98286.16;10247869;28;20121;-56
2022/11/09 19:31:43;;;;;;;94.35;63.80;;;;;;;9.30;89.97;98280.03;10249044;28;20070;-57
2022/11/09 19:36:44;;;;;;;113.95;78.28;;;;;;;9.20;90.53;98301.44;10250972;28;20065;-57
2022/11/09 19:41:43;;;;;;;87.03;59.03;;;;;;;9.13;90.27;98287.56;10256962;28;20088;-57
2022/11/09 19:46:43;;;;;;;91.35;60.53;;;;;;;9.05;90.72;98289.19;10256901;28;20082;-57
2022/11/09 19:51:42;;;;;;;74.20;48.10;;;;;;;8.91;91.61;98273.47;10256133;28;20521;-56
2022/11/09 19:56:41;;;;;;;79.70;50.95;;;;;;;8.88;91.84;98284.63;10255741;28;20490;-57
2022/11/09 20:01:41;;;;;;;79.78;53.40;;;;;;;8.83;92.17;98283.72;10256301;28;20040;-57
2022/11/09 20:06:40;;;;;;;82.70;49.88;;;;;;;8.86;92.23;98275.13;10254909;28;20066;-55
2022/11/09 20:16:57;;;;;;;76.55;47.53;;;;;;;8.84;92.29;98274.22;10256055;28;20073;-55
2022/11/09 20:21:55;;;;;;;75.90;46.83;;;;;;;8.78;92.64;98279.28;10254253;28;20022;-55
2022/11/09 20:26:54;;;;;;;75.57;47.72;;;;;;;8.67;93.22;98287.78;10254045;28;20041;-57
2022/11/09 20:31:53;;;;;;;117.88;74.18;;;;;;;8.67;93.32;98287.78;10255276;28;20475;-57
2022/11/09 20:36:52;;;;;;;111.47;66.85;;;;;;;8.68;93.08;98288.66;10265812;28;20667;-57
2022/11/09 20:41:51;;;;;;;93.03;58.00;;;;;;;8.64;93.42;98284.25;10293167;28;20044;-56
2022/11/09 20:46:51;;;;;;;92.80;55.83;;;;;;;8.59;93.06;98286.78;10293927;28;20052;-57
2022/11/09 20:51:49;;;;;;;;;;;;;;;8.50;92.63;98287.53;10294098;28;20092;-57
2022/11/09 20:56:48;;;;;;;87.20;49.03;;;;;;;8.45;92.79;98283.97;10293820;28;20007;-57
2022/11/09 21:01:47;;;;;;;124.55;70.30;;;;;;;8.35;92.58;98289.84;10293731;28;20108;-55
2022/11/09 21:06:46;;;;;;;81.38;47.85;;;;;;;8.28;92.73;98295.78;10293694;28;20588;-57
2022/11/09 21:17:03;;;;;;;92.32;53.88;;;;;;;8.07;93.29;98289.38;10295310;28;20065;-57
2022/11/09 21:22:02;;;;;;;112.78;65.78;;;;;;;8.04;93.40;98294.50;10274897;28;20109;-55
2022/11/09 21:32:19;;;;;;;90.88;56.55;;;;;;;7.87;94.37;98301.06;10254058;28;20073;-57
2022/11/09 21:37:18;;;;;;;98.78;59.38;;;;;;;7.85;93.94;98300.19;10253909;28;20074;-57
2022/11/09 21:42:17;;;;;;;109.75;66.30;;;;;;;7.73;94.87;98300.81;10253779;28;20030;-57
2022/11/09 21:47:17;;;;;;;105.28;59.70;;;;;;;7.64;94.74;98286.03;10253318;28;20476;-56
2022/11/09 21:52:16;;;;;;;92.47;50.83;;;;;;;7.51;94.85;98291.78;10253105;28;20093;-57
2022/11/09 21:57:14;;;;;;;97.38;51.38;;;;;;;7.44;95.14;98295.94;10252922;28;20026;-56
2022/11/09 22:02:14;;;;;;;105.95;61.17;;;;;;;7.38;95.68;98294.91;10252892;28;20113;-57
2022/11/09 22:07:13;;;;;;;102.25;61.40;;;;;;;7.36;96.23;98296.63;10252815;28;20088;-56
2022/11/09 22:17:33;;;;;;;117.50;68.22;;;;;;;7.27;95.74;98299.03;10242120;28;20077;-57
2022/11/09 22:22:33;;;;;;;115.38;65.50;;;;;;;7.21;95.70;98292.88;10252094;28;20022;-57
2022/11/09 22:27:32;;;;;;;113.00;64.15;;;;;;;7.16;96.44;98281.56;10251753;28;20501;-57
2022/11/09 22:32:31;;;;;;;;;;;;;;;7.19;95.57;98294.56;10252252;28;20480;-57
2022/11/09 22:37:30;;;;;;;105.50;53.75;;;;;;;7.14;96.17;98283.25;10251292;28;19909;-56
2022/11/09 22:42:29;;;;;;;120.43;66.55;;;;;;;7.05;96.50;98298.53;10251687;28;20026;-57
2022/11/09 22:47:28;;;;;;;93.82;48.28;;;;;;;6.93;97.04;98300.84;10264716;28;20036;-56
2022/11/09 22:52:27;;;;;;;76.97;42.95;;;;;;;6.80;96.85;98307.47;10291579;28;20062;-56
2022/11/09 22:57:26;;;;;;;71.65;38.50;;;;;;;6.54;97.15;98306.84;10291164;28;20537;-56
2022/11/09 23:02:24;;;;;;;60.63;36.30;;;;;;;6.50;96.92;98305.03;10291523;28;20555;-56
2022/11/09 23:07:23;;;;;;;63.42;36.95;;;;;;;6.37;97.28;98312.47;10290511;28;20033;-54
2022/11/09 23:12:22;;;;;;;67.40;37.78;;;;;;;6.33;96.72;98307.22;10289751;28;20033;-57
2022/11/09 23:22:39;;;;;;;71.03;38.15;;;;;;;6.14;97.63;98309.31;10287001;28;20494;-57
2022/11/09 23:27:37;;;;;;;131.52;44.95;;;;;;;6.08;97.50;98313.44;10287526;28;20505;-57
2022/11/09 23:32:36;;;;;;;77.22;41.70;;;;;;;5.90;98.73;98317.28;10288443;28;20037;-57